sensor_id;sensor_type;location;lat;lon;timestamp;P1;durP1;ratioP1;P2;durP2;ratioP2
34236;SDS011;20501;45.956;13.632;2023-06-22T00:01:52;10.30;;;6.25;;
34236;SDS011;20501;45.956;13.632;2023-06-22T00:04:17;8.95;;;5.78;;
34236;SDS011;20501;45.956;13.632;2023-06-22T00:06:43;13.80;;;7.15;;
34236;SDS011;20501;45.956;13.632;2023-06-22T00:09:08;12.35;;;6.53;;
34236;SDS011;20501;45.956;13.632;2023-06-22T00:11:35;9.25;;;5.80;;
34236;SDS011;20501;45.956;13.632;2023-06-22T00:14:01;8.82;;;6.30;;
34236;SDS011;20501;45.956;13.632;2023-06-22T00:16:27;12.35;;;7.13;;
34236;SDS011;20501;45.956;13.632;2023-06-22T00:18:52;9.85;;;5.70;;
34236;SDS011;20501;45.956;13.632;2023-06-22T00:21:18;11.30;;;6.27;;
34236;SDS011;20501;45.956;13.632;2023-06-22T00:23:45;11.20;;;6.65;;
34236;SDS011;20501;45.956;13.632;2023-06-22T00:26:12;10.70;;;6.25;;
34236;SDS011;20501;45.956;13.632;2023-06-22T00:28:38;13.77;;;7.90;;
34236;SDS011;20501;45.956;13.632;2023-06-22T00:31:04;11.60;;;7.53;;
34236;SDS011;20501;45.956;13.632;2023-06-22T00:33:29;13.35;;;6.53;;
34236;SDS011;20501;45.956;13.632;2023-06-22T00:35:54;11.60;;;6.43;;
34236;SDS011;20501;45.956;13.632;2023-06-22T00:38:20;12.55;;;6.45;;
34236;SDS011;20501;45.956;13.632;2023-06-22T00:40:45;8.82;;;6.22;;
34236;SDS011;20501;45.956;13.632;2023-06-22T00:43:11;11.30;;;6.75;;
34236;SDS011;20501;45.956;13.632;2023-06-22T00:45:36;12.93;;;5.97;;
34236;SDS011;20501;45.956;13.632;2023-06-22T00:48:03;13.70;;;6.45;;
34236;SDS011;20501;45.956;13.632;2023-06-22T00:50:30;14.68;;;6.88;;
34236;SDS011;20501;45.956;13.632;2023-06-22T00:53:04;9.25;;;5.65;;
34236;SDS011;20501;45.956;13.632;2023-06-22T00:55:33;8.30;;;5.15;;
34236;SDS011;20501;45.956;13.632;2023-06-22T00:58:02;9.88;;;5.43;;
34236;SDS011;20501;45.956;13.632;2023-06-22T01:00:30;13.43;;;6.18;;
34236;SDS011;20501;45.956;13.632;2023-06-22T01:05:23;8.35;;;5.15;;
34236;SDS011;20501;45.956;13.632;2023-06-22T01:13:02;8.43;;;5.90;;
34236;SDS011;20501;45.956;13.632;2023-06-22T01:15:36;9.07;;;5.70;;
34236;SDS011;20501;45.956;13.632;2023-06-22T01:18:11;10.05;;;5.80;;
34236;SDS011;20501;45.956;13.632;2023-06-22T01:20:39;9.75;;;6.00;;
34236;SDS011;20501;45.956;13.632;2023-06-22T01:23:10;10.63;;;6.47;;
34236;SDS011;20501;45.956;13.632;2023-06-22T01:25:48;9.52;;;6.03;;
34236;SDS011;20501;45.956;13.632;2023-06-22T01:28:53;10.85;;;5.82;;
34236;SDS011;20501;45.956;13.632;2023-06-22T01:31:22;12.00;;;6.63;;
34236;SDS011;20501;45.956;13.632;2023-06-22T01:33:51;9.93;;;6.35;;
34236;SDS011;20501;45.956;13.632;2023-06-22T01:36:19;8.75;;;5.60;;
34236;SDS011;20501;45.956;13.632;2023-06-22T01:38:47;9.65;;;5.93;;
34236;SDS011;20501;45.956;13.632;2023-06-22T01:41:13;11.32;;;6.60;;
34236;SDS011;20501;45.956;13.632;2023-06-22T01:43:39;12.30;;;6.07;;
34236;SDS011;20501;45.956;13.632;2023-06-22T01:46:06;14.45;;;7.78;;
34236;SDS011;20501;45.956;13.632;2023-06-22T01:48:33;11.63;;;6.45;;
34236;SDS011;20501;45.956;13.632;2023-06-22T01:50:58;9.40;;;6.20;;
34236;SDS011;20501;45.956;13.632;2023-06-22T01:53:24;12.20;;;6.15;;
34236;SDS011;20501;45.956;13.632;2023-06-22T01:55:50;11.15;;;6.47;;
34236;SDS011;20501;45.956;13.632;2023-06-22T01:58:15;11.15;;;6.22;;
34236;SDS011;20501;45.956;13.632;2023-06-22T02:00:44;8.45;;;5.88;;
34236;SDS011;20501;45.956;13.632;2023-06-22T02:03:19;11.68;;;6.25;;
34236;SDS011;20501;45.956;13.632;2023-06-22T02:05:49;10.85;;;6.20;;
34236;SDS011;20501;45.956;13.632;2023-06-22T02:08:21;10.63;;;6.20;;
34236;SDS011;20501;45.956;13.632;2023-06-22T02:10:49;10.45;;;6.03;;
34236;SDS011;20501;45.956;13.632;2023-06-22T02:13:17;10.30;;;6.47;;
34236;SDS011;20501;45.956;13.632;2023-06-22T02:15:44;10.32;;;5.72;;
34236;SDS011;20501;45.956;13.632;2023-06-22T02:18:11;13.15;;;6.85;;
34236;SDS011;20501;45.956;13.632;2023-06-22T02:20:38;13.07;;;6.75;;
34236;SDS011;20501;45.956;13.632;2023-06-22T02:23:05;10.65;;;5.93;;
34236;SDS011;20501;45.956;13.632;2023-06-22T02:25:31;10.40;;;6.05;;
34236;SDS011;20501;45.956;13.632;2023-06-22T02:27:57;10.40;;;6.82;;
34236;SDS011;20501;45.956;13.632;2023-06-22T02:30:23;10.30;;;6.38;;
34236;SDS011;20501;45.956;13.632;2023-06-22T02:32:48;12.82;;;7.47;;
34236;SDS011;20501;45.956;13.632;2023-06-22T02:35:14;12.60;;;7.17;;
34236;SDS011;20501;45.956;13.632;2023-06-22T02:37:39;14.82;;;7.82;;
34236;SDS011;20501;45.956;13.632;2023-06-22T02:42:36;30.60;;;7.47;;
34236;SDS011;20501;45.956;13.632;2023-06-22T02:45:02;10.97;;;6.37;;
34236;SDS011;20501;45.956;13.632;2023-06-22T02:47:28;12.48;;;6.40;;
34236;SDS011;20501;45.956;13.632;2023-06-22T02:49:53;13.43;;;6.22;;
34236;SDS011;20501;45.956;13.632;2023-06-22T02:52:18;11.60;;;6.93;;
34236;SDS011;20501;45.956;13.632;2023-06-22T02:54:44;9.75;;;6.22;;
34236;SDS011;20501;45.956;13.632;2023-06-22T02:57:12;12.70;;;7.13;;
34236;SDS011;20501;45.956;13.632;2023-06-22T02:59:39;13.27;;;6.63;;
34236;SDS011;20501;45.956;13.632;2023-06-22T03:02:10;12.15;;;6.53;;
34236;SDS011;20501;45.956;13.632;2023-06-22T03:04:36;10.80;;;6.70;;
34236;SDS011;20501;45.956;13.632;2023-06-22T03:07:02;14.37;;;6.87;;
34236;SDS011;20501;45.956;13.632;2023-06-22T03:09:27;14.68;;;7.18;;
34236;SDS011;20501;45.956;13.632;2023-06-22T03:11:53;10.20;;;6.20;;
34236;SDS011;20501;45.956;13.632;2023-06-22T03:14:19;10.73;;;6.15;;
34236;SDS011;20501;45.956;13.632;2023-06-22T03:16:45;10.73;;;6.23;;
34236;SDS011;20501;45.956;13.632;2023-06-22T03:19:10;8.95;;;6.05;;
34236;SDS011;20501;45.956;13.632;2023-06-22T03:21:37;11.18;;;6.95;;
34236;SDS011;20501;45.956;13.632;2023-06-22T03:24:03;11.88;;;5.53;;
34236;SDS011;20501;45.956;13.632;2023-06-22T03:26:29;9.07;;;5.95;;
34236;SDS011;20501;45.956;13.632;2023-06-22T03:28:55;8.35;;;5.80;;
34236;SDS011;20501;45.956;13.632;2023-06-22T03:31:20;12.40;;;5.80;;
34236;SDS011;20501;45.956;13.632;2023-06-22T03:33:47;9.50;;;6.35;;
34236;SDS011;20501;45.956;13.632;2023-06-22T03:36:14;11.20;;;6.03;;
34236;SDS011;20501;45.956;13.632;2023-06-22T03:38:41;8.43;;;5.85;;
34236;SDS011;20501;45.956;13.632;2023-06-22T03:41:06;14.17;;;6.40;;
34236;SDS011;20501;45.956;13.632;2023-06-22T03:43:32;10.98;;;6.93;;
34236;SDS011;20501;45.956;13.632;2023-06-22T03:45:57;11.82;;;6.55;;
34236;SDS011;20501;45.956;13.632;2023-06-22T03:48:23;13.85;;;6.78;;
34236;SDS011;20501;45.956;13.632;2023-06-22T03:50:48;10.40;;;6.25;;
34236;SDS011;20501;45.956;13.632;2023-06-22T03:53:14;11.23;;;6.07;;
34236;SDS011;20501;45.956;13.632;2023-06-22T03:55:47;10.52;;;6.43;;
34236;SDS011;20501;45.956;13.632;2023-06-22T03:58:14;10.15;;;6.30;;
34236;SDS011;20501;45.956;13.632;2023-06-22T04:00:39;11.30;;;5.88;;
34236;SDS011;20501;45.956;13.632;2023-06-22T04:03:05;11.65;;;6.55;;
34236;SDS011;20501;45.956;13.632;2023-06-22T04:05:32;12.52;;;6.72;;
34236;SDS011;20501;45.956;13.632;2023-06-22T04:07:57;11.93;;;6.50;;
34236;SDS011;20501;45.956;13.632;2023-06-22T04:10:23;11.48;;;6.72;;
34236;SDS011;20501;45.956;13.632;2023-06-22T04:12:48;11.75;;;6.80;;
34236;SDS011;20501;45.956;13.632;2023-06-22T04:15:14;10.55;;;6.55;;
34236;SDS011;20501;45.956;13.632;2023-06-22T04:17:39;10.40;;;6.60;;
34236;SDS011;20501;45.956;13.632;2023-06-22T04:20:05;11.98;;;6.78;;
34236;SDS011;20501;45.956;13.632;2023-06-22T04:22:31;11.60;;;6.45;;
34236;SDS011;20501;45.956;13.632;2023-06-22T04:24:56;15.75;;;6.75;;
34236;SDS011;20501;45.956;13.632;2023-06-22T04:27:22;12.65;;;7.03;;
34236;SDS011;20501;45.956;13.632;2023-06-22T04:29:48;10.40;;;6.78;;
34236;SDS011;20501;45.956;13.632;2023-06-22T04:32:16;11.15;;;6.30;;
34236;SDS011;20501;45.956;13.632;2023-06-22T04:34:42;11.55;;;6.57;;
34236;SDS011;20501;45.956;13.632;2023-06-22T04:37:08;20.35;;;6.60;;
34236;SDS011;20501;45.956;13.632;2023-06-22T04:39:34;12.48;;;5.40;;
34236;SDS011;20501;45.956;13.632;2023-06-22T04:41:59;11.40;;;6.80;;
34236;SDS011;20501;45.956;13.632;2023-06-22T04:44:25;8.30;;;5.63;;
34236;SDS011;20501;45.956;13.632;2023-06-22T04:46:56;8.95;;;6.03;;
34236;SDS011;20501;45.956;13.632;2023-06-22T04:49:25;9.90;;;5.75;;
34236;SDS011;20501;45.956;13.632;2023-06-22T04:52:01;10.45;;;6.25;;
34236;SDS011;20501;45.956;13.632;2023-06-22T04:54:28;13.48;;;7.05;;
34236;SDS011;20501;45.956;13.632;2023-06-22T04:56:53;14.90;;;6.32;;
34236;SDS011;20501;45.956;13.632;2023-06-22T04:59:26;10.45;;;6.10;;
34236;SDS011;20501;45.956;13.632;2023-06-22T05:01:55;10.13;;;6.22;;
34236;SDS011;20501;45.956;13.632;2023-06-22T05:04:25;12.73;;;7.03;;
34236;SDS011;20501;45.956;13.632;2023-06-22T05:06:52;10.40;;;6.43;;
34236;SDS011;20501;45.956;13.632;2023-06-22T05:09:18;11.68;;;6.57;;
34236;SDS011;20501;45.956;13.632;2023-06-22T05:11:46;11.95;;;6.25;;
34236;SDS011;20501;45.956;13.632;2023-06-22T05:14:12;9.48;;;5.95;;
34236;SDS011;20501;45.956;13.632;2023-06-22T05:16:38;12.63;;;7.22;;
34236;SDS011;20501;45.956;13.632;2023-06-22T05:19:06;8.57;;;5.38;;
34236;SDS011;20501;45.956;13.632;2023-06-22T05:21:32;13.50;;;6.78;;
34236;SDS011;20501;45.956;13.632;2023-06-22T05:23:57;11.15;;;6.03;;
34236;SDS011;20501;45.956;13.632;2023-06-22T05:26:28;10.80;;;6.63;;
34236;SDS011;20501;45.956;13.632;2023-06-22T05:28:55;10.80;;;5.80;;
34236;SDS011;20501;45.956;13.632;2023-06-22T05:31:21;10.25;;;6.50;;
34236;SDS011;20501;45.956;13.632;2023-06-22T05:33:48;15.27;;;6.93;;
34236;SDS011;20501;45.956;13.632;2023-06-22T05:36:14;11.48;;;7.10;;
34236;SDS011;20501;45.956;13.632;2023-06-22T05:38:40;14.55;;;7.13;;
34236;SDS011;20501;45.956;13.632;2023-06-22T05:41:06;11.10;;;6.07;;
34236;SDS011;20501;45.956;13.632;2023-06-22T05:43:32;12.97;;;6.40;;
34236;SDS011;20501;45.956;13.632;2023-06-22T05:45:57;13.05;;;6.35;;
34236;SDS011;20501;45.956;13.632;2023-06-22T05:48:26;12.98;;;6.65;;
34236;SDS011;20501;45.956;13.632;2023-06-22T05:50:52;11.37;;;7.10;;
34236;SDS011;20501;45.956;13.632;2023-06-22T05:53:18;13.32;;;7.32;;
34236;SDS011;20501;45.956;13.632;2023-06-22T05:55:43;11.80;;;7.15;;
34236;SDS011;20501;45.956;13.632;2023-06-22T05:58:09;10.07;;;5.95;;
34236;SDS011;20501;45.956;13.632;2023-06-22T06:00:35;12.02;;;7.22;;
34236;SDS011;20501;45.956;13.632;2023-06-22T06:03:00;13.55;;;7.13;;
34236;SDS011;20501;45.956;13.632;2023-06-22T06:05:29;9.43;;;6.65;;
34236;SDS011;20501;45.956;13.632;2023-06-22T06:07:55;8.50;;;6.10;;
34236;SDS011;20501;45.956;13.632;2023-06-22T06:10:20;12.73;;;6.82;;
34236;SDS011;20501;45.956;13.632;2023-06-22T06:12:46;15.75;;;7.05;;
34236;SDS011;20501;45.956;13.632;2023-06-22T06:15:11;11.57;;;6.70;;
34236;SDS011;20501;45.956;13.632;2023-06-22T06:17:45;13.15;;;7.03;;
34236;SDS011;20501;45.956;13.632;2023-06-22T06:20:11;10.30;;;6.63;;
34236;SDS011;20501;45.956;13.632;2023-06-22T06:22:37;13.43;;;6.47;;
34236;SDS011;20501;45.956;13.632;2023-06-22T06:25:02;17.40;;;7.57;;
34236;SDS011;20501;45.956;13.632;2023-06-22T06:27:28;14.17;;;7.47;;
34236;SDS011;20501;45.956;13.632;2023-06-22T06:29:54;12.18;;;6.70;;
34236;SDS011;20501;45.956;13.632;2023-06-22T06:32:19;15.23;;;7.40;;
34236;SDS011;20501;45.956;13.632;2023-06-22T06:34:45;11.63;;;6.90;;
34236;SDS011;20501;45.956;13.632;2023-06-22T06:37:10;12.20;;;7.38;;
34236;SDS011;20501;45.956;13.632;2023-06-22T06:39:35;12.88;;;7.20;;
34236;SDS011;20501;45.956;13.632;2023-06-22T06:42:01;10.32;;;6.30;;
34236;SDS011;20501;45.956;13.632;2023-06-22T06:44:27;13.13;;;7.35;;
34236;SDS011;20501;45.956;13.632;2023-06-22T06:46:52;10.95;;;6.85;;
34236;SDS011;20501;45.956;13.632;2023-06-22T06:49:19;13.27;;;7.45;;
34236;SDS011;20501;45.956;13.632;2023-06-22T06:51:44;14.45;;;7.70;;
34236;SDS011;20501;45.956;13.632;2023-06-22T06:54:10;14.65;;;7.10;;
34236;SDS011;20501;45.956;13.632;2023-06-22T06:56:35;10.80;;;6.78;;
34236;SDS011;20501;45.956;13.632;2023-06-22T06:59:01;13.90;;;7.85;;
34236;SDS011;20501;45.956;13.632;2023-06-22T07:01:26;12.10;;;7.07;;
34236;SDS011;20501;45.956;13.632;2023-06-22T07:03:52;11.73;;;7.57;;
34236;SDS011;20501;45.956;13.632;2023-06-22T07:06:18;11.25;;;7.07;;
34236;SDS011;20501;45.956;13.632;2023-06-22T07:08:44;11.73;;;6.53;;
34236;SDS011;20501;45.956;13.632;2023-06-22T07:11:09;15.30;;;6.55;;
34236;SDS011;20501;45.956;13.632;2023-06-22T07:13:35;11.33;;;6.20;;
34236;SDS011;20501;45.956;13.632;2023-06-22T07:16:00;15.35;;;7.45;;
34236;SDS011;20501;45.956;13.632;2023-06-22T07:18:25;16.50;;;8.23;;
34236;SDS011;20501;45.956;13.632;2023-06-22T07:20:51;20.65;;;8.50;;
34236;SDS011;20501;45.956;13.632;2023-06-22T07:23:20;12.82;;;7.60;;
34236;SDS011;20501;45.956;13.632;2023-06-22T07:25:45;12.93;;;6.82;;
34236;SDS011;20501;45.956;13.632;2023-06-22T07:28:10;11.77;;;6.53;;
34236;SDS011;20501;45.956;13.632;2023-06-22T07:30:36;14.90;;;8.50;;
34236;SDS011;20501;45.956;13.632;2023-06-22T07:33:01;13.32;;;7.53;;
34236;SDS011;20501;45.956;13.632;2023-06-22T07:35:32;14.77;;;7.43;;
34236;SDS011;20501;45.956;13.632;2023-06-22T07:37:57;13.57;;;7.78;;
34236;SDS011;20501;45.956;13.632;2023-06-22T07:40:23;14.17;;;7.53;;
34236;SDS011;20501;45.956;13.632;2023-06-22T07:42:49;16.73;;;8.85;;
34236;SDS011;20501;45.956;13.632;2023-06-22T07:45:16;13.27;;;7.35;;
34236;SDS011;20501;45.956;13.632;2023-06-22T07:47:42;19.73;;;8.20;;
34236;SDS011;20501;45.956;13.632;2023-06-22T07:50:08;14.93;;;8.57;;
34236;SDS011;20501;45.956;13.632;2023-06-22T07:52:34;15.33;;;7.70;;
34236;SDS011;20501;45.956;13.632;2023-06-22T07:54:59;10.73;;;6.53;;
34236;SDS011;20501;45.956;13.632;2023-06-22T07:57:25;11.57;;;7.03;;
34236;SDS011;20501;45.956;13.632;2023-06-22T08:00:00;16.35;;;7.20;;
34236;SDS011;20501;45.956;13.632;2023-06-22T08:02:26;12.95;;;6.97;;
34236;SDS011;20501;45.956;13.632;2023-06-22T08:04:51;10.13;;;6.67;;
34236;SDS011;20501;45.956;13.632;2023-06-22T08:07:17;12.77;;;7.28;;
34236;SDS011;20501;45.956;13.632;2023-06-22T08:09:48;10.25;;;6.28;;
34236;SDS011;20501;45.956;13.632;2023-06-22T08:12:14;14.75;;;7.32;;
34236;SDS011;20501;45.956;13.632;2023-06-22T08:14:41;14.93;;;7.90;;
34236;SDS011;20501;45.956;13.632;2023-06-22T08:17:08;18.00;;;7.65;;
34236;SDS011;20501;45.956;13.632;2023-06-22T08:19:33;17.87;;;7.70;;
34236;SDS011;20501;45.956;13.632;2023-06-22T08:21:59;15.15;;;8.00;;
34236;SDS011;20501;45.956;13.632;2023-06-22T08:24:25;12.40;;;6.80;;
34236;SDS011;20501;45.956;13.632;2023-06-22T08:26:51;12.30;;;6.97;;
34236;SDS011;20501;45.956;13.632;2023-06-22T08:29:17;13.27;;;7.80;;
34236;SDS011;20501;45.956;13.632;2023-06-22T08:31:42;11.40;;;6.60;;
34236;SDS011;20501;45.956;13.632;2023-06-22T08:34:08;11.73;;;7.25;;
34236;SDS011;20501;45.956;13.632;2023-06-22T08:36:33;12.80;;;8.03;;
34236;SDS011;20501;45.956;13.632;2023-06-22T08:39:03;11.98;;;7.78;;
34236;SDS011;20501;45.956;13.632;2023-06-22T08:41:29;12.27;;;7.65;;
34236;SDS011;20501;45.956;13.632;2023-06-22T08:43:54;12.80;;;8.47;;
34236;SDS011;20501;45.956;13.632;2023-06-22T08:46:20;13.13;;;7.68;;
34236;SDS011;20501;45.956;13.632;2023-06-22T08:48:48;14.60;;;8.68;;
34236;SDS011;20501;45.956;13.632;2023-06-22T08:51:15;15.38;;;7.20;;
34236;SDS011;20501;45.956;13.632;2023-06-22T08:53:40;14.07;;;7.57;;
34236;SDS011;20501;45.956;13.632;2023-06-22T08:56:06;14.15;;;8.60;;
34236;SDS011;20501;45.956;13.632;2023-06-22T08:58:31;13.85;;;7.57;;
34236;SDS011;20501;45.956;13.632;2023-06-22T09:00:58;12.40;;;7.68;;
34236;SDS011;20501;45.956;13.632;2023-06-22T09:03:26;14.77;;;8.90;;
34236;SDS011;20501;45.956;13.632;2023-06-22T09:05:51;14.87;;;8.77;;
34236;SDS011;20501;45.956;13.632;2023-06-22T09:08:16;15.07;;;8.77;;
34236;SDS011;20501;45.956;13.632;2023-06-22T09:10:42;17.67;;;8.67;;
34236;SDS011;20501;45.956;13.632;2023-06-22T09:13:07;17.02;;;9.77;;
34236;SDS011;20501;45.956;13.632;2023-06-22T09:15:33;15.43;;;9.15;;
34236;SDS011;20501;45.956;13.632;2023-06-22T09:17:59;17.20;;;8.88;;
34236;SDS011;20501;45.956;13.632;2023-06-22T09:20:24;15.47;;;9.73;;
34236;SDS011;20501;45.956;13.632;2023-06-22T09:22:53;17.67;;;9.97;;
34236;SDS011;20501;45.956;13.632;2023-06-22T09:25:18;17.77;;;9.98;;
34236;SDS011;20501;45.956;13.632;2023-06-22T09:27:45;14.30;;;8.98;;
34236;SDS011;20501;45.956;13.632;2023-06-22T09:30:11;14.48;;;9.23;;
34236;SDS011;20501;45.956;13.632;2023-06-22T09:32:37;16.37;;;9.63;;
34236;SDS011;20501;45.956;13.632;2023-06-22T09:35:04;17.97;;;9.20;;
34236;SDS011;20501;45.956;13.632;2023-06-22T09:37:34;18.60;;;9.88;;
34236;SDS011;20501;45.956;13.632;2023-06-22T09:39:59;15.77;;;10.20;;
34236;SDS011;20501;45.956;13.632;2023-06-22T09:42:25;18.13;;;9.57;;
34236;SDS011;20501;45.956;13.632;2023-06-22T09:44:50;17.40;;;9.87;;
34236;SDS011;20501;45.956;13.632;2023-06-22T09:47:16;16.07;;;10.17;;
34236;SDS011;20501;45.956;13.632;2023-06-22T09:49:41;14.90;;;9.60;;
34236;SDS011;20501;45.956;13.632;2023-06-22T09:52:07;16.10;;;9.43;;
34236;SDS011;20501;45.956;13.632;2023-06-22T09:54:32;16.93;;;9.70;;
34236;SDS011;20501;45.956;13.632;2023-06-22T09:56:58;16.63;;;10.10;;
34236;SDS011;20501;45.956;13.632;2023-06-22T09:59:23;14.43;;;8.90;;
34236;SDS011;20501;45.956;13.632;2023-06-22T10:01:49;15.95;;;9.23;;
34236;SDS011;20501;45.956;13.632;2023-06-22T10:04:14;13.10;;;9.37;;
34236;SDS011;20501;45.956;13.632;2023-06-22T10:06:40;17.00;;;10.33;;
34236;SDS011;20501;45.956;13.632;2023-06-22T10:09:06;14.50;;;8.97;;
34236;SDS011;20501;45.956;13.632;2023-06-22T10:11:32;15.20;;;8.95;;
34236;SDS011;20501;45.956;13.632;2023-06-22T10:14:00;15.80;;;9.85;;
34236;SDS011;20501;45.956;13.632;2023-06-22T10:16:30;18.10;;;9.90;;
34236;SDS011;20501;45.956;13.632;2023-06-22T10:18:56;15.23;;;10.18;;
34236;SDS011;20501;45.956;13.632;2023-06-22T10:21:21;13.87;;;9.23;;
34236;SDS011;20501;45.956;13.632;2023-06-22T10:23:47;14.93;;;10.23;;
34236;SDS011;20501;45.956;13.632;2023-06-22T10:26:12;17.93;;;11.27;;
34236;SDS011;20501;45.956;13.632;2023-06-22T10:28:38;17.90;;;9.60;;
34236;SDS011;20501;45.956;13.632;2023-06-22T10:31:03;19.23;;;10.93;;
34236;SDS011;20501;45.956;13.632;2023-06-22T10:33:29;18.33;;;10.50;;
34236;SDS011;20501;45.956;13.632;2023-06-22T10:35:54;16.50;;;9.70;;
34236;SDS011;20501;45.956;13.632;2023-06-22T10:38:20;14.40;;;9.77;;
34236;SDS011;20501;45.956;13.632;2023-06-22T10:40:46;18.17;;;11.17;;
34236;SDS011;20501;45.956;13.632;2023-06-22T10:43:11;17.57;;;11.13;;
34236;SDS011;20501;45.956;13.632;2023-06-22T10:45:36;17.93;;;10.60;;
34236;SDS011;20501;45.956;13.632;2023-06-22T10:48:02;17.33;;;10.20;;
34236;SDS011;20501;45.956;13.632;2023-06-22T10:50:27;15.33;;;9.93;;
34236;SDS011;20501;45.956;13.632;2023-06-22T10:52:54;19.40;;;11.05;;
34236;SDS011;20501;45.956;13.632;2023-06-22T10:55:19;17.77;;;10.67;;
34236;SDS011;20501;45.956;13.632;2023-06-22T10:57:45;19.97;;;11.37;;
34236;SDS011;20501;45.956;13.632;2023-06-22T11:00:12;16.67;;;10.48;;
34236;SDS011;20501;45.956;13.632;2023-06-22T11:02:38;17.45;;;10.50;;
34236;SDS011;20501;45.956;13.632;2023-06-22T11:05:04;18.77;;;11.23;;
34236;SDS011;20501;45.956;13.632;2023-06-22T11:07:30;19.07;;;11.93;;
34236;SDS011;20501;45.956;13.632;2023-06-22T11:09:56;22.70;;;12.07;;
34236;SDS011;20501;45.956;13.632;2023-06-22T11:12:21;19.37;;;12.50;;
34236;SDS011;20501;45.956;13.632;2023-06-22T11:14:47;19.60;;;11.33;;
34236;SDS011;20501;45.956;13.632;2023-06-22T11:17:12;22.87;;;11.13;;
34236;SDS011;20501;45.956;13.632;2023-06-22T11:19:38;23.77;;;11.80;;
34236;SDS011;20501;45.956;13.632;2023-06-22T11:22:03;18.23;;;11.10;;
34236;SDS011;20501;45.956;13.632;2023-06-22T11:24:29;20.00;;;11.93;;
34236;SDS011;20501;45.956;13.632;2023-06-22T11:26:54;18.77;;;10.90;;
34236;SDS011;20501;45.956;13.632;2023-06-22T11:29:20;19.03;;;11.50;;
34236;SDS011;20501;45.956;13.632;2023-06-22T11:31:45;16.53;;;11.10;;
34236;SDS011;20501;45.956;13.632;2023-06-22T11:34:10;17.77;;;11.37;;
34236;SDS011;20501;45.956;13.632;2023-06-22T11:36:36;20.20;;;11.60;;
34236;SDS011;20501;45.956;13.632;2023-06-22T11:39:02;16.83;;;10.07;;
34236;SDS011;20501;45.956;13.632;2023-06-22T11:41:27;24.87;;;11.00;;
34236;SDS011;20501;45.956;13.632;2023-06-22T11:43:53;21.20;;;12.27;;
34236;SDS011;20501;45.956;13.632;2023-06-22T11:46:18;18.20;;;10.73;;
34236;SDS011;20501;45.956;13.632;2023-06-22T11:48:44;18.13;;;11.67;;
34236;SDS011;20501;45.956;13.632;2023-06-22T11:51:10;17.90;;;11.05;;
34236;SDS011;20501;45.956;13.632;2023-06-22T11:53:36;18.33;;;9.90;;
34236;SDS011;20501;45.956;13.632;2023-06-22T11:56:01;17.27;;;10.70;;
34236;SDS011;20501;45.956;13.632;2023-06-22T11:58:27;19.50;;;10.67;;
34236;SDS011;20501;45.956;13.632;2023-06-22T12:00:53;15.23;;;9.60;;
34236;SDS011;20501;45.956;13.632;2023-06-22T12:03:19;15.98;;;10.35;;
34236;SDS011;20501;45.956;13.632;2023-06-22T12:05:46;21.23;;;10.82;;
34236;SDS011;20501;45.956;13.632;2023-06-22T12:08:12;19.37;;;11.37;;
34236;SDS011;20501;45.956;13.632;2023-06-22T12:10:38;17.30;;;11.02;;
34236;SDS011;20501;45.956;13.632;2023-06-22T12:13:04;15.87;;;10.20;;
34236;SDS011;20501;45.956;13.632;2023-06-22T12:15:29;17.40;;;10.53;;
34236;SDS011;20501;45.956;13.632;2023-06-22T12:17:54;18.00;;;10.93;;
34236;SDS011;20501;45.956;13.632;2023-06-22T12:20:20;19.20;;;11.13;;
34236;SDS011;20501;45.956;13.632;2023-06-22T12:22:45;18.43;;;11.80;;
34236;SDS011;20501;45.956;13.632;2023-06-22T12:25:11;19.27;;;10.30;;
34236;SDS011;20501;45.956;13.632;2023-06-22T12:27:37;16.23;;;8.63;;
34236;SDS011;20501;45.956;13.632;2023-06-22T12:30:03;19.02;;;11.05;;
34236;SDS011;20501;45.956;13.632;2023-06-22T12:32:29;19.48;;;10.57;;
34236;SDS011;20501;45.956;13.632;2023-06-22T12:34:55;15.57;;;10.30;;
34236;SDS011;20501;45.956;13.632;2023-06-22T12:37:21;18.27;;;10.80;;
34236;SDS011;20501;45.956;13.632;2023-06-22T12:39:47;16.75;;;10.25;;
34236;SDS011;20501;45.956;13.632;2023-06-22T12:42:13;20.63;;;11.60;;
34236;SDS011;20501;45.956;13.632;2023-06-22T12:44:38;18.07;;;10.97;;
34236;SDS011;20501;45.956;13.632;2023-06-22T12:47:05;21.98;;;11.52;;
34236;SDS011;20501;45.956;13.632;2023-06-22T12:49:30;17.90;;;10.73;;
34236;SDS011;20501;45.956;13.632;2023-06-22T12:51:56;19.90;;;11.33;;
34236;SDS011;20501;45.956;13.632;2023-06-22T12:54:21;19.37;;;11.00;;
34236;SDS011;20501;45.956;13.632;2023-06-22T12:56:47;19.70;;;9.90;;
34236;SDS011;20501;45.956;13.632;2023-06-22T12:59:12;20.47;;;10.50;;
34236;SDS011;20501;45.956;13.632;2023-06-22T13:01:38;26.07;;;9.70;;
34236;SDS011;20501;45.956;13.632;2023-06-22T13:04:03;13.50;;;9.13;;
34236;SDS011;20501;45.956;13.632;2023-06-22T13:06:30;12.65;;;8.88;;
34236;SDS011;20501;45.956;13.632;2023-06-22T13:08:55;17.97;;;10.27;;
34236;SDS011;20501;45.956;13.632;2023-06-22T13:11:21;13.67;;;9.27;;
34236;SDS011;20501;45.956;13.632;2023-06-22T13:13:46;18.27;;;10.33;;
34236;SDS011;20501;45.956;13.632;2023-06-22T13:16:12;15.33;;;8.90;;
34236;SDS011;20501;45.956;13.632;2023-06-22T13:18:37;15.93;;;9.73;;
34236;SDS011;20501;45.956;13.632;2023-06-22T13:21:03;17.43;;;10.27;;
34236;SDS011;20501;45.956;13.632;2023-06-22T13:23:29;14.02;;;9.18;;
34236;SDS011;20501;45.956;13.632;2023-06-22T13:25:54;14.37;;;9.60;;
34236;SDS011;20501;45.956;13.632;2023-06-22T13:28:20;15.63;;;9.50;;
34236;SDS011;20501;45.956;13.632;2023-06-22T13:30:46;15.87;;;9.30;;
34236;SDS011;20501;45.956;13.632;2023-06-22T13:33:12;15.57;;;9.55;;
34236;SDS011;20501;45.956;13.632;2023-06-22T13:35:39;13.85;;;8.05;;
34236;SDS011;20501;45.956;13.632;2023-06-22T13:38:07;14.65;;;8.95;;
34236;SDS011;20501;45.956;13.632;2023-06-22T13:40:34;14.48;;;9.43;;
34236;SDS011;20501;45.956;13.632;2023-06-22T13:42:59;16.63;;;9.47;;
34236;SDS011;20501;45.956;13.632;2023-06-22T13:45:25;14.77;;;8.80;;
34236;SDS011;20501;45.956;13.632;2023-06-22T13:47:51;14.37;;;8.70;;
34236;SDS011;20501;45.956;13.632;2023-06-22T13:50:16;14.87;;;8.17;;
34236;SDS011;20501;45.956;13.632;2023-06-22T13:52:42;16.13;;;9.10;;
34236;SDS011;20501;45.956;13.632;2023-06-22T13:55:08;12.60;;;9.00;;
34236;SDS011;20501;45.956;13.632;2023-06-22T13:57:34;15.45;;;8.90;;
34236;SDS011;20501;45.956;13.632;2023-06-22T14:00:00;11.30;;;8.40;;
34236;SDS011;20501;45.956;13.632;2023-06-22T14:02:26;16.10;;;8.90;;
34236;SDS011;20501;45.956;13.632;2023-06-22T14:04:51;14.43;;;9.00;;
34236;SDS011;20501;45.956;13.632;2023-06-22T14:07:17;27.33;;;9.47;;
34236;SDS011;20501;45.956;13.632;2023-06-22T14:09:44;16.15;;;9.05;;
34236;SDS011;20501;45.956;13.632;2023-06-22T14:12:10;19.07;;;9.17;;
34236;SDS011;20501;45.956;13.632;2023-06-22T14:14:35;16.07;;;8.83;;
34236;SDS011;20501;45.956;13.632;2023-06-22T14:17:01;19.87;;;9.63;;
34236;SDS011;20501;45.956;13.632;2023-06-22T14:19:26;12.53;;;8.57;;
34236;SDS011;20501;45.956;13.632;2023-06-22T14:21:52;12.13;;;8.37;;
34236;SDS011;20501;45.956;13.632;2023-06-22T14:24:17;13.50;;;8.80;;
34236;SDS011;20501;45.956;13.632;2023-06-22T14:26:43;12.23;;;8.00;;